createdAt,value
2022-12-08T11:35:53.992Z,90.78
2022-12-08T11:41:16.292Z,91.34
2022-12-08T11:46:32.092Z,91
2022-12-08T11:51:51.120Z,90.36
2022-12-08T11:57:10.171Z,89.8
2022-12-08T12:02:29.654Z,89.84
2022-12-08T12:07:48.581Z,89.39
2022-12-08T12:13:08.006Z,89.42
2022-12-08T12:18:26.935Z,89.88
2022-12-08T12:23:45.809Z,89.93
2022-12-08T12:29:05.721Z,89.95
2022-12-08T12:34:24.532Z,90.25
2022-12-08T12:39:43.645Z,90.03
2022-12-08T12:45:02.887Z,89.84
2022-12-08T12:50:22.644Z,89.67
2022-12-08T12:55:41.766Z,89.65
2022-12-08T13:01:00.961Z,89.8
2022-12-08T13:06:20.328Z,89.03
2022-12-08T13:11:42.143Z,88.94
2022-12-08T13:16:59.042Z,89.14
2022-12-08T13:22:18.654Z,89.04
2022-12-08T13:27:38.388Z,88.17
2022-12-08T13:33:17.515Z,88.3
2022-12-08T13:38:16.481Z,87.83
2022-12-08T13:43:44.999Z,88.25
2022-12-08T13:55:19.960Z,87.95
2022-12-08T13:59:33.348Z,88.37
2022-12-08T14:05:17.837Z,87.66
2022-12-08T14:10:12.164Z,87.6
2022-12-08T14:15:35.652Z,86.97
2022-12-08T14:21:19.193Z,87.03
2022-12-08T14:26:10.500Z,86.43
2022-12-08T14:31:29.589Z,86.51
2022-12-08T14:36:48.538Z,86.78
2022-12-08T14:42:07.676Z,87.17
2022-12-08T14:47:26.828Z,86.56
2022-12-08T14:52:46.670Z,86.48
2022-12-08T14:58:05.101Z,85.91
2022-12-08T15:03:24.256Z,85.47
2022-12-08T15:03:51.323Z,83.61
2022-12-08T15:09:08.495Z,86.02
2022-12-08T15:14:28.148Z,85.56
2022-12-08T15:19:47.056Z,86.08
2022-12-08T15:25:05.839Z,86.26
2022-12-08T15:30:25.563Z,86.92
2022-12-08T15:35:44.855Z,86.79
2022-12-08T15:41:03.913Z,87.24
2022-12-08T15:46:23.497Z,86.71
2022-12-08T15:51:42.807Z,85.38
2022-12-08T15:57:18.950Z,85.3
2022-12-08T16:02:22.486Z,85.74
2022-12-08T16:07:40.731Z,85.77
2022-12-08T16:18:19.106Z,86.38
2022-12-08T16:23:43.430Z,86.52
2022-12-08T16:28:58.593Z,86.2
2022-12-08T16:34:18.308Z,86.43
2022-12-08T16:39:41.088Z,86.74
2022-12-08T16:44:56.310Z,86.79
2022-12-08T16:50:15.968Z,86.99
2022-12-08T16:55:35.739Z,87.18
2022-12-08T17:00:54.638Z,87.5
2022-12-08T17:06:13.383Z,87.75
2022-12-08T17:11:36.143Z,88.15
2022-12-08T17:16:52.618Z,88.25
2022-12-08T17:22:11.371Z,88.36
2022-12-08T17:27:30.818Z,88.56
2022-12-08T17:32:50.145Z,88.92
2022-12-08T17:38:09.683Z,89.28
2022-12-08T17:43:28.712Z,89.69
2022-12-08T17:48:48.330Z,89.94
2022-12-08T17:54:08.000Z,90.06
2022-12-08T17:59:27.467Z,90.27
2022-12-08T18:04:46.372Z,90.46
2022-12-08T18:10:15.008Z,90.44
2022-12-08T18:15:25.872Z,90.58
2022-12-08T18:20:45.660Z,90.41
2022-12-08T18:26:05.720Z,90.33
2022-12-08T18:31:24.993Z,91.42
2022-12-08T18:36:44.154Z,91.9
2022-12-08T18:42:03.545Z,92.49
2022-12-08T18:47:22.901Z,92.73
2022-12-08T18:52:42.256Z,92.29
2022-12-08T18:58:01.351Z,92.11
2022-12-08T19:03:19.903Z,91.73
2022-12-08T19:08:38.986Z,91.91
2022-12-08T19:13:58.524Z,92.1
2022-12-08T19:19:17.780Z,92.1
2022-12-08T19:24:37.357Z,91.95
2022-12-08T19:29:56.195Z,91.66
2022-12-08T19:35:15.365Z,91.48
2022-12-08T19:40:34.238Z,91.23
2022-12-08T19:45:53.749Z,91.07
2022-12-08T19:51:12.714Z,90.64
2022-12-08T19:56:32.031Z,90.49
2022-12-08T20:01:51.251Z,90.47
2022-12-08T20:07:10.705Z,90.03
2022-12-08T20:12:30.331Z,89.95
2022-12-08T20:17:49.779Z,90.17
2022-12-08T20:28:28.811Z,90.06
2022-12-08T20:33:48.313Z,89.77
2022-12-08T20:39:07.522Z,89.89
2022-12-08T20:55:06.174Z,90.63
2022-12-08T21:00:25.182Z,90.12
2022-12-08T21:05:42.423Z,90.2
2022-12-08T21:11:01.390Z,90.33
2022-12-08T21:16:21.267Z,90.63
2022-12-08T21:21:40.241Z,91.05
2022-12-08T21:26:59.927Z,91.32
2022-12-08T21:32:18.766Z,92.03
2022-12-08T21:37:38.409Z,92.53
2022-12-08T21:42:57.984Z,92.61
2022-12-08T21:48:17.488Z,93.15
2022-12-08T21:53:36.782Z,93.76
2022-12-08T21:58:56.228Z,93.92
